Time;durP1;ratioP1;P1;durP2;ratioP2;P2;SDS_P1;SDS_P2;PMS_P1;PMS_P2;Temp;Humidity;BMP_temperature;BMP_pressure;BME280_temperature;BME280_humidity;BME280_pressure;Samples;Min_cycle;Max_cycle;Signal;HPM_P1;HPM_P2
2022/07/30 00:02:02;;;;;;;6.83;6.00;;;;;;;;;;5038985;28;20441;-83
2022/07/30 00:04:31;;;;;;;6.63;5.15;;;;;;;;;;5037740;28;20435;-83
2022/07/30 00:06:57;;;;;;;8.13;6.60;;;;;;;;;;5035435;28;20533;-83
2022/07/30 00:09:25;;;;;;;8.27;5.65;;;;;;;;;;5036947;28;20426;-82
2022/07/30 00:11:51;;;;;;;6.20;5.60;;;;;;;;;;5035339;28;20786;-83
2022/07/30 00:14:18;;;;;;;6.60;5.75;;;;;;;;;;5018688;28;20431;-83
2022/07/30 00:16:44;;;;;;;8.88;6.30;;;;;;;;;;5037366;28;20437;-83
2022/07/30 00:19:11;;;;;;;6.93;5.57;;;;;;;;;;5039238;28;20417;-82
2022/07/30 00:21:39;;;;;;;8.25;6.20;;;;;;;;;;5038274;28;20483;-83
2022/07/30 00:24:07;;;;;;;8.77;5.18;;;;;;;;;;5039371;28;20433;-81
2022/07/30 00:26:34;;;;;;;7.28;5.32;;;;;;;;;;5040595;28;20450;-82
2022/07/30 00:29:00;;;;;;;7.63;5.15;;;;;;;;;;5032342;28;20435;-83
2022/07/30 00:31:27;;;;;;;6.25;5.60;;;;;;;;;;5020816;28;20430;-83
2022/07/30 00:33:53;;;;;;;7.85;5.60;;;;;;;;;;5038294;28;20425;-83
2022/07/30 00:36:19;;;;;;;6.20;5.22;;;;;;;;;;5039571;28;20418;-81
2022/07/30 00:38:47;;;;;;;7.60;5.50;;;;;;;;;;5036909;28;20422;-83
2022/07/30 00:41:14;;;;;;;8.87;6.33;;;;;;;;;;5019605;28;20434;-82
2022/07/30 00:43:41;;;;;;;6.43;5.37;;;;;;;;;;5032369;28;20440;-82
2022/07/30 00:46:07;;;;;;;7.68;5.78;;;;;;;;;;5036112;28;20438;-82
2022/07/30 00:48:33;;;;;;;8.43;6.40;;;;;;;;;;5036534;28;20428;-84
2022/07/30 00:51:00;;;;;;;7.38;5.95;;;;;;;;;;5037694;28;20430;-82
2022/07/30 00:53:26;;;;;;;9.65;6.10;;;;;;;;;;5033498;28;20428;-83
2022/07/30 00:55:54;;;;;;;6.40;5.20;;;;;;;;;;5030653;28;20433;-83
2022/07/30 00:58:21;;;;;;;8.43;5.90;;;;;;;;;;5036197;28;20419;-82
2022/07/30 01:00:47;;;;;;;11.85;5.97;;;;;;;;;;5009525;28;20978;-82
2022/07/30 01:03:13;;;;;;;9.30;5.90;;;;;;;;;;5029822;28;20755;-82
2022/07/30 01:05:40;;;;;;;7.30;6.60;;;;;;;;;;5033819;28;20429;-82
2022/07/30 01:08:06;;;;;;;7.07;6.38;;;;;;;;;;5037613;28;20411;-83
2022/07/30 01:10:33;;;;;;;7.05;5.80;;;;;;;;;;5037244;28;20786;-82
2022/07/30 01:13:02;;;;;;;6.70;6.00;;;;;;;;;;5018928;28;20801;-83
2022/07/30 01:15:29;;;;;;;7.35;5.70;;;;;;;;;;5039640;28;20419;-82
2022/07/30 01:17:58;;;;;;;6.82;5.70;;;;;;;;;;5022199;28;20425;-82
2022/07/30 01:20:25;;;;;;;6.82;5.30;;;;;;;;;;5037846;28;20427;-82
2022/07/30 01:23:07;;;;;;;5.85;5.35;;;;;;;;;;5035256;28;20435;-82
2022/07/30 01:25:55;;;;;;;9.60;5.80;;;;;;;;;;5038907;28;20429;-85
2022/07/30 01:28:24;;;;;;;9.85;5.32;;;;;;;;;;5034321;28;20413;-83
2022/07/30 01:30:52;;;;;;;10.10;5.90;;;;;;;;;;5037171;28;20430;-82
2022/07/30 01:33:19;;;;;;;11.50;5.95;;;;;;;;;;5037219;28;20423;-82
2022/07/30 01:35:47;;;;;;;6.45;5.65;;;;;;;;;;5037035;28;20425;-82
2022/07/30 01:38:15;;;;;;;8.57;5.72;;;;;;;;;;5018821;28;20430;-82
2022/07/30 01:40:42;;;;;;;7.85;5.53;;;;;;;;;;5022569;28;20429;-82
2022/07/30 01:43:10;;;;;;;10.60;5.60;;;;;;;;;;5037534;28;20448;-83
2022/07/30 01:45:38;;;;;;;7.30;5.50;;;;;;;;;;5004900;28;20428;-83
2022/07/30 01:48:06;;;;;;;6.70;5.40;;;;;;;;;;5037929;28;20424;-84
2022/07/30 01:50:34;;;;;;;7.63;5.10;;;;;;;;;;5035690;28;20432;-83
2022/07/30 01:53:01;;;;;;;8.88;5.57;;;;;;;;;;5036335;28;20809;-85
2022/07/30 01:55:31;;;;;;;6.17;5.13;;;;;;;;;;5038898;28;20433;-82
2022/07/30 01:57:59;;;;;;;7.13;5.10;;;;;;;;;;5035316;28;20433;-83
2022/07/30 02:00:27;;;;;;;8.50;5.33;;;;;;;;;;5038392;28;20425;-84
2022/07/30 02:02:54;;;;;;;6.80;5.80;;;;;;;;;;5033503;28;20436;-83
2022/07/30 02:05:21;;;;;;;9.70;6.00;;;;;;;;;;5033846;28;20434;-82
2022/07/30 02:07:54;;;;;;;6.78;5.45;;;;;;;;;;5035892;28;20435;-81
2022/07/30 02:10:23;;;;;;;8.05;5.50;;;;;;;;;;5039166;28;20443;-80
2022/07/30 02:12:51;;;;;;;9.52;5.00;;;;;;;;;;5003676;28;20485;-84
2022/07/30 02:15:23;;;;;;;7.15;5.20;;;;;;;;;;5018676;28;20509;-82
2022/07/30 02:17:54;;;;;;;7.95;5.30;;;;;;;;;;5036818;28;20990;-82
2022/07/30 02:20:24;;;;;;;7.87;6.10;;;;;;;;;;5037855;28;20427;-82
2022/07/30 02:22:55;;;;;;;8.20;5.72;;;;;;;;;;5035773;28;20425;-83
2022/07/30 02:25:22;;;;;;;7.45;5.60;;;;;;;;;;5037448;28;20432;-83
2022/07/30 02:27:51;;;;;;;6.60;6.00;;;;;;;;;;5036523;28;20437;-81
2022/07/30 02:30:19;;;;;;;9.17;5.90;;;;;;;;;;5044313;28;20425;-82
2022/07/30 02:32:47;;;;;;;10.10;5.70;;;;;;;;;;5040654;28;20429;-82
2022/07/30 02:35:15;;;;;;;7.25;5.15;;;;;;;;;;5037782;28;20445;-82
2022/07/30 02:37:45;;;;;;;6.60;5.47;;;;;;;;;;5040408;28;20813;-83
2022/07/30 02:40:13;;;;;;;6.22;5.57;;;;;;;;;;5041888;28;20442;-83
2022/07/30 02:42:41;;;;;;;6.27;5.50;;;;;;;;;;5022058;28;20432;-81
2022/07/30 02:45:08;;;;;;;7.05;5.80;;;;;;;;;;5037517;28;20433;-84
2022/07/30 02:47:35;;;;;;;8.35;6.18;;;;;;;;;;5038021;28;20464;-84
2022/07/30 02:50:02;;;;;;;6.80;6.10;;;;;;;;;;5033189;28;20439;-83
2022/07/30 02:52:29;;;;;;;6.50;5.90;;;;;;;;;;5037389;28;20431;-81
2022/07/30 02:54:59;;;;;;;8.93;5.40;;;;;;;;;;5038236;28;20433;-85
2022/07/30 02:57:26;;;;;;;8.27;5.43;;;;;;;;;;5035203;28;20432;-84
2022/07/30 02:59:53;;;;;;;5.95;5.40;;;;;;;;;;5038087;28;20429;-82
2022/07/30 03:02:20;;;;;;;6.65;5.82;;;;;;;;;;5032603;28;20434;-84
2022/07/30 03:04:48;;;;;;;6.95;5.60;;;;;;;;;;5037059;28;20425;-84
2022/07/30 03:07:15;;;;;;;7.03;5.88;;;;;;;;;;5006141;28;20982;-82
2022/07/30 03:09:43;;;;;;;7.17;5.77;;;;;;;;;;5021561;28;21016;-83
2022/07/30 03:12:12;;;;;;;6.32;5.68;;;;;;;;;;5041083;28;20419;-82
2022/07/30 03:14:39;;;;;;;7.30;5.20;;;;;;;;;;5038399;28;20438;-82
2022/07/30 03:17:06;;;;;;;6.97;5.50;;;;;;;;;;5008127;28;20430;-83
2022/07/30 03:19:33;;;;;;;5.88;5.15;;;;;;;;;;5035442;28;20445;-82
2022/07/30 03:22:01;;;;;;;6.90;5.10;;;;;;;;;;5036973;28;20431;-83
2022/07/30 03:24:28;;;;;;;6.47;5.85;;;;;;;;;;5039337;28;20430;-82
2022/07/30 03:26:55;;;;;;;7.90;5.80;;;;;;;;;;5040342;28;20505;-82
2022/07/30 03:29:24;;;;;;;6.18;5.57;;;;;;;;;;5040552;28;20421;-81
2022/07/30 03:31:51;;;;;;;6.22;4.18;;;;;;;;;;5039983;28;20431;-84
2022/07/30 03:34:18;;;;;;;9.77;5.50;;;;;;;;;;5036351;28;20419;-83
2022/07/30 03:36:44;;;;;;;7.25;4.90;;;;;;;;;;5036753;28;20428;-84
2022/07/30 03:39:13;;;;;;;5.50;5.00;;;;;;;;;;5035416;28;20431;-83
2022/07/30 03:41:40;;;;;;;5.85;4.70;;;;;;;;;;5036320;28;20431;-82
2022/07/30 03:44:08;;;;;;;6.70;4.72;;;;;;;;;;5035369;28;20445;-83
2022/07/30 03:46:36;;;;;;;5.15;4.65;;;;;;;;;;5040355;28;20470;-81
2022/07/30 03:49:04;;;;;;;4.63;4.23;;;;;;;;;;5040598;28;20424;-81
2022/07/30 03:51:31;;;;;;;6.78;4.30;;;;;;;;;;5040030;28;20425;-83
2022/07/30 03:53:57;;;;;;;4.80;4.40;;;;;;;;;;4990674;28;20440;-84
2022/07/30 03:56:24;;;;;;;4.47;4.07;;;;;;;;;;5037084;28;20425;-83
2022/07/30 03:58:51;;;;;;;6.25;5.10;;;;;;;;;;5035850;28;20446;-83
2022/07/30 04:01:17;;;;;;;5.72;5.13;;;;;;;;;;5037902;28;20437;-83
2022/07/30 04:03:45;;;;;;;6.03;5.43;;;;;;;;;;5038027;28;20426;-82
2022/07/30 04:06:11;;;;;;;5.95;5.45;;;;;;;;;;5036113;28;20806;-82
2022/07/30 04:08:38;;;;;;;5.93;5.20;;;;;;;;;;5034659;28;20936;-82
2022/07/30 04:11:04;;;;;;;5.93;5.43;;;;;;;;;;5037958;28;20439;-82
2022/07/30 04:13:30;;;;;;;5.05;4.00;;;;;;;;;;5035593;28;21337;-82
2022/07/30 04:16:01;;;;;;;5.70;4.60;;;;;;;;;;5040101;28;20512;-83
2022/07/30 04:18:31;;;;;;;6.35;5.68;;;;;;;;;;5036742;28;20501;-83
2022/07/30 04:20:59;;;;;;;5.80;5.20;;;;;;;;;;5020272;28;20487;-83
2022/07/30 04:23:26;;;;;;;5.60;5.00;;;;;;;;;;5036891;28;20640;-82
2022/07/30 04:25:52;;;;;;;9.30;5.40;;;;;;;;;;5039882;28;20438;-83
2022/07/30 04:28:20;;;;;;;5.50;5.00;;;;;;;;;;5033336;28;20783;-84
2022/07/30 04:30:47;;;;;;;7.83;5.80;;;;;;;;;;5036319;28;20433;-81
2022/07/30 04:33:13;;;;;;;6.85;6.20;;;;;;;;;;5037785;28;20452;-84
2022/07/30 04:35:40;;;;;;;7.07;6.18;;;;;;;;;;5019289;28;20439;-83
2022/07/30 04:38:09;;;;;;;9.32;6.78;;;;;;;;;;5031879;28;20414;-83
2022/07/30 04:40:35;;;;;;;6.72;6.13;;;;;;;;;;5041627;28;20435;-83
2022/07/30 04:43:02;;;;;;;7.55;5.82;;;;;;;;;;5038999;28;20430;-84
2022/07/30 04:45:28;;;;;;;7.00;5.88;;;;;;;;;;5038522;28;20439;-82
2022/07/30 04:47:55;;;;;;;7.35;6.18;;;;;;;;;;5031508;28;20904;-82
2022/07/30 04:50:22;;;;;;;8.25;6.38;;;;;;;;;;5036750;28;20435;-82
2022/07/30 04:52:49;;;;;;;8.68;7.60;;;;;;;;;;5035512;28;20429;-83
2022/07/30 04:55:18;;;;;;;8.75;7.95;;;;;;;;;;5038729;28;20518;-81
2022/07/30 04:57:48;;;;;;;10.77;7.90;;;;;;;;;;5035766;28;20518;-82
2022/07/30 05:00:15;;;;;;;10.52;7.90;;;;;;;;;;5035530;28;20429;-83
2022/07/30 05:02:42;;;;;;;9.00;7.97;;;;;;;;;;5039810;28;21034;-85
2022/07/30 05:05:10;;;;;;;9.70;7.80;;;;;;;;;;5008906;28;20422;-82
2022/07/30 05:07:37;;;;;;;11.98;8.40;;;;;;;;;;5030091;28;20433;-84
2022/07/30 05:10:05;;;;;;;10.07;9.05;;;;;;;;;;5035197;28;20435;-83
2022/07/30 05:12:37;;;;;;;10.25;9.20;;;;;;;;;;5034809;28;20947;-80
2022/07/30 05:15:04;;;;;;;12.30;11.00;;;;;;;;;;5039123;28;20423;-84
2022/07/30 05:17:30;;;;;;;12.40;10.55;;;;;;;;;;5025471;28;20484;-83
2022/07/30 05:19:57;;;;;;;12.30;11.00;;;;;;;;;;5034906;28;20431;-81
2022/07/30 05:22:28;;;;;;;13.82;12.10;;;;;;;;;;5023982;28;20493;-82
2022/07/30 05:24:55;;;;;;;13.93;11.30;;;;;;;;;;5005875;28;20934;-85
2022/07/30 05:27:21;;;;;;;13.55;12.15;;;;;;;;;;5039263;28;20783;-85
2022/07/30 05:29:49;;;;;;;15.50;13.05;;;;;;;;;;5038541;28;20432;-82
2022/07/30 05:32:16;;;;;;;16.05;14.20;;;;;;;;;;5036440;28;20421;-81
2022/07/30 05:34:45;;;;;;;20.05;15.38;;;;;;;;;;5036898;28;20437;-83
2022/07/30 05:37:13;;;;;;;20.67;16.70;;;;;;;;;;5035731;28;20944;-83
2022/07/30 05:39:40;;;;;;;16.48;14.77;;;;;;;;;;5035266;28;20442;-83
2022/07/30 05:42:07;;;;;;;16.63;14.65;;;;;;;;;;5038803;28;20965;-81
2022/07/30 05:44:33;;;;;;;17.77;15.80;;;;;;;;;;5032283;28;20804;-83
2022/07/30 05:47:01;;;;;;;17.48;15.68;;;;;;;;;;5038253;28;20433;-83
2022/07/30 05:49:28;;;;;;;19.58;17.48;;;;;;;;;;5034008;28;20832;-81
2022/07/30 05:51:54;;;;;;;20.58;18.00;;;;;;;;;;5036781;28;20454;-84
2022/07/30 05:54:21;;;;;;;19.92;17.83;;;;;;;;;;5031009;28;20434;-84
2022/07/30 05:56:47;;;;;;;22.80;18.40;;;;;;;;;;5035580;28;20460;-82
2022/07/30 05:59:14;;;;;;;17.93;16.07;;;;;;;;;;5035765;28;20427;-81
2022/07/30 06:01:41;;;;;;;17.43;15.00;;;;;;;;;;5019790;28;20427;-84
2022/07/30 06:04:09;;;;;;;21.67;17.08;;;;;;;;;;5031759;28;20945;-83
2022/07/30 06:06:35;;;;;;;19.98;17.15;;;;;;;;;;5039373;28;20423;-84
2022/07/30 06:09:02;;;;;;;20.00;18.00;;;;;;;;;;5036038;28;20780;-82
2022/07/30 06:11:28;;;;;;;21.98;19.02;;;;;;;;;;5037619;28;20438;-84
2022/07/30 06:13:54;;;;;;;23.20;19.02;;;;;;;;;;5032384;28;20435;-83
2022/07/30 06:16:21;;;;;;;26.70;18.95;;;;;;;;;;5038120;28;20429;-84
2022/07/30 06:18:47;;;;;;;22.35;19.92;;;;;;;;;;5039936;28;20432;-81
2022/07/30 06:21:15;;;;;;;23.05;19.70;;;;;;;;;;5039821;28;20438;-82
2022/07/30 06:23:42;;;;;;;22.00;18.08;;;;;;;;;;5043155;28;20448;-82
2022/07/30 06:26:08;;;;;;;20.13;16.27;;;;;;;;;;5042795;28;20413;-82
2022/07/30 06:28:35;;;;;;;17.88;15.98;;;;;;;;;;5036929;28;20419;-84
2022/07/30 06:31:01;;;;;;;19.77;15.33;;;;;;;;;;5043021;28;20411;-85
2022/07/30 06:33:28;;;;;;;19.35;16.00;;;;;;;;;;5044254;28;20823;-83
2022/07/30 06:35:54;;;;;;;19.30;15.88;;;;;;;;;;5042355;28;20433;-83
2022/07/30 06:38:22;;;;;;;17.08;14.90;;;;;;;;;;5024691;28;20423;-83
2022/07/30 06:40:49;;;;;;;17.63;14.50;;;;;;;;;;5043040;28;20438;-82
2022/07/30 06:43:15;;;;;;;16.15;13.32;;;;;;;;;;5038117;28;20444;-84
2022/07/30 06:45:41;;;;;;;18.50;13.70;;;;;;;;;;5044241;28;20527;-82
2022/07/30 06:48:08;;;;;;;16.65;14.65;;;;;;;;;;5041702;28;20418;-84
2022/07/30 06:50:35;;;;;;;15.07;13.20;;;;;;;;;;5042851;28;20417;-84
2022/07/30 06:53:02;;;;;;;22.30;15.90;;;;;;;;;;5040460;28;20421;-84
2022/07/30 06:55:30;;;;;;;18.83;14.77;;;;;;;;;;5039128;28;20410;-84
2022/07/30 06:57:56;;;;;;;17.95;16.02;;;;;;;;;;5041944;28;20495;-85
2022/07/30 07:00:22;;;;;;;21.40;15.10;;;;;;;;;;5042370;28;20778;-84
2022/07/30 07:02:49;;;;;;;19.02;15.48;;;;;;;;;;5042363;28;20433;-84
2022/07/30 07:05:15;;;;;;;17.67;15.90;;;;;;;;;;5035115;28;20440;-83
2022/07/30 07:07:42;;;;;;;20.05;14.75;;;;;;;;;;5032970;28;20873;-82
2022/07/30 07:10:09;;;;;;;19.17;14.80;;;;;;;;;;5040147;28;20499;-85
2022/07/30 07:12:37;;;;;;;17.90;14.93;;;;;;;;;;5036515;28;20439;-83
2022/07/30 07:15:04;;;;;;;16.95;14.50;;;;;;;;;;5041359;28;20919;-82
2022/07/30 07:17:31;;;;;;;16.67;14.87;;;;;;;;;;5023309;28;20421;-82
2022/07/30 07:19:58;;;;;;;19.45;15.40;;;;;;;;;;5038366;28;20971;-80
2022/07/30 07:22:24;;;;;;;19.23;13.10;;;;;;;;;;5040895;28;20421;-83
2022/07/30 07:24:50;;;;;;;17.05;12.48;;;;;;;;;;5042070;28;20945;-83
2022/07/30 07:27:17;;;;;;;17.58;13.43;;;;;;;;;;5039851;28;20434;-83
2022/07/30 07:29:44;;;;;;;19.00;14.40;;;;;;;;;;5008424;28;20508;-81
2022/07/30 07:32:11;;;;;;;20.13;14.07;;;;;;;;;;5024690;28;20421;-83
2022/07/30 07:34:37;;;;;;;19.30;13.60;;;;;;;;;;5041708;28;20428;-82
2022/07/30 07:37:04;;;;;;;18.03;13.53;;;;;;;;;;5040613;28;20438;-82
2022/07/30 07:39:30;;;;;;;19.60;14.68;;;;;;;;;;5039429;28;20427;-82
2022/07/30 07:41:56;;;;;;;18.35;13.60;;;;;;;;;;5039244;28;20437;-82
2022/07/30 07:44:24;;;;;;;18.65;14.60;;;;;;;;;;5041418;28;20422;-83
2022/07/30 07:46:52;;;;;;;17.33;13.88;;;;;;;;;;5037647;28;20438;-81
2022/07/30 07:49:18;;;;;;;15.55;13.23;;;;;;;;;;5037786;28;20417;-83
2022/07/30 07:51:45;;;;;;;16.63;13.35;;;;;;;;;;5041069;28;20407;-84
2022/07/30 07:54:11;;;;;;;19.80;13.50;;;;;;;;;;5041958;28;20479;-82
2022/07/30 07:56:37;;;;;;;16.50;12.55;;;;;;;;;;5040166;28;20822;-84
2022/07/30 07:59:04;;;;;;;17.40;13.80;;;;;;;;;;5042266;28;20413;-81
2022/07/30 08:01:30;;;;;;;19.15;13.27;;;;;;;;;;5042389;28;20504;-82
2022/07/30 08:03:58;;;;;;;16.35;11.70;;;;;;;;;;5038769;28;20429;-84
2022/07/30 08:06:25;;;;;;;14.20;11.27;;;;;;;;;;5040244;28;20431;-83
2022/07/30 08:08:52;;;;;;;18.67;11.55;;;;;;;;;;5039282;28;20422;-83
2022/07/30 08:11:19;;;;;;;12.25;10.98;;;;;;;;;;5037233;28;20813;-83
2022/07/30 08:13:45;;;;;;;12.98;10.40;;;;;;;;;;5036612;28;20413;-85
2022/07/30 08:16:13;;;;;;;12.20;10.90;;;;;;;;;;5005396;28;20954;-81
2022/07/30 08:18:39;;;;;;;19.02;10.95;;;;;;;;;;5038933;28;20421;-81
2022/07/30 08:21:07;;;;;;;12.50;11.20;;;;;;;;;;5021620;28;20439;-82
2022/07/30 08:23:34;;;;;;;12.80;10.00;;;;;;;;;;5039325;28;20422;-81
2022/07/30 08:26:00;;;;;;;12.15;10.13;;;;;;;;;;5039633;28;20434;-81
2022/07/30 08:28:27;;;;;;;14.30;10.50;;;;;;;;;;5036370;28;20434;-82
2022/07/30 08:30:54;;;;;;;12.63;10.68;;;;;;;;;;5037508;28;20426;-82
2022/07/30 08:33:20;;;;;;;12.13;10.80;;;;;;;;;;5040488;28;20424;-84
2022/07/30 08:35:46;;;;;;;14.18;10.20;;;;;;;;;;5030946;28;20804;-84
2022/07/30 08:38:14;;;;;;;13.13;10.00;;;;;;;;;;5025314;28;21169;-84
2022/07/30 08:40:41;;;;;;;10.90;9.70;;;;;;;;;;5037843;28;20431;-81
2022/07/30 08:43:10;;;;;;;11.50;9.82;;;;;;;;;;5007738;28;20487;-81
2022/07/30 08:45:36;;;;;;;13.82;10.50;;;;;;;;;;5036905;28;20426;-83
2022/07/30 08:48:07;;;;;;;12.30;10.07;;;;;;;;;;5037398;28;20397;-82
2022/07/30 08:50:35;;;;;;;11.68;9.93;;;;;;;;;;5041075;28;20436;-85
2022/07/30 08:53:02;;;;;;;13.00;9.65;;;;;;;;;;5033413;28;20463;-82
2022/07/30 08:55:30;;;;;;;11.50;8.60;;;;;;;;;;5016919;28;20426;-81
2022/07/30 08:57:56;;;;;;;10.68;9.20;;;;;;;;;;5034344;28;20433;-82
2022/07/30 09:00:23;;;;;;;10.93;9.32;;;;;;;;;;5018507;28;20431;-82
2022/07/30 09:02:49;;;;;;;10.60;8.50;;;;;;;;;;5037781;28;20435;-82
2022/07/30 09:05:16;;;;;;;11.77;8.90;;;;;;;;;;5022724;28;20406;-83
2022/07/30 09:07:42;;;;;;;12.75;9.20;;;;;;;;;;5038104;28;20498;-83
2022/07/30 09:10:10;;;;;;;10.90;9.18;;;;;;;;;;5036556;28;20889;-83
2022/07/30 09:12:39;;;;;;;9.68;8.20;;;;;;;;;;5034798;28;20433;-85
2022/07/30 09:15:08;;;;;;;14.00;8.48;;;;;;;;;;5035989;28;20501;-82
2022/07/30 09:17:51;;;;;;;12.93;8.30;;;;;;;;;;5039663;28;20801;-81
2022/07/30 09:20:18;;;;;;;12.15;8.52;;;;;;;;;;5038421;28;20424;-81
2022/07/30 09:22:45;;;;;;;14.02;8.10;;;;;;;;;;5030569;28;20438;-82
2022/07/30 09:25:12;;;;;;;15.07;8.50;;;;;;;;;;5034302;28;20432;-82
2022/07/30 09:27:48;;;;;;;11.90;8.00;;;;;;;;;;5035436;28;20435;-84
2022/07/30 09:30:14;;;;;;;7.80;5.25;;;;;;;;;;5015721;28;20808;-83
2022/07/30 09:32:48;;;;;;;9.25;5.85;;;;;;;;;;4991169;28;20461;-84
2022/07/30 09:35:15;;;;;;;8.15;5.43;;;;;;;;;;5038079;28;20937;-85
2022/07/30 09:37:42;;;;;;;8.85;5.40;;;;;;;;;;5035807;28;20459;-80
2022/07/30 09:40:12;;;;;;;6.50;4.90;;;;;;;;;;5008990;28;20516;-82
2022/07/30 09:42:39;;;;;;;8.57;5.20;;;;;;;;;;5040418;28;20431;-82
2022/07/30 09:45:10;;;;;;;9.32;5.10;;;;;;;;;;5037689;28;20412;-84
2022/07/30 09:47:38;;;;;;;8.93;5.10;;;;;;;;;;5043496;28;20414;-82
2022/07/30 09:50:06;;;;;;;8.07;5.20;;;;;;;;;;5040769;28;20419;-81
2022/07/30 09:52:32;;;;;;;6.35;5.03;;;;;;;;;;5039929;28;20432;-82
2022/07/30 09:55:00;;;;;;;9.07;4.70;;;;;;;;;;5039640;28;20454;-82
2022/07/30 09:57:26;;;;;;;6.88;4.18;;;;;;;;;;5037157;28;20449;-83
2022/07/30 09:59:53;;;;;;;4.93;4.50;;;;;;;;;;5009660;28;20902;-82
2022/07/30 10:02:21;;;;;;;8.73;5.50;;;;;;;;;;5039556;28;20443;-80
2022/07/30 10:04:48;;;;;;;8.90;4.80;;;;;;;;;;5035858;28;20432;-82
2022/07/30 10:07:18;;;;;;;6.50;4.70;;;;;;;;;;5035950;28;20445;-82
2022/07/30 10:09:46;;;;;;;6.10;5.30;;;;;;;;;;5041909;28;20485;-82
2022/07/30 10:12:13;;;;;;;6.45;5.28;;;;;;;;;;5039347;28;20492;-82
2022/07/30 10:14:42;;;;;;;7.47;4.68;;;;;;;;;;5042762;28;20436;-85
2022/07/30 10:17:08;;;;;;;7.47;4.37;;;;;;;;;;5008785;28;20429;-83
2022/07/30 10:19:37;;;;;;;6.20;4.50;;;;;;;;;;5042063;28;20425;-82
2022/07/30 10:22:03;;;;;;;6.20;4.10;;;;;;;;;;5021637;28;20446;-83
2022/07/30 10:24:30;;;;;;;6.22;4.93;;;;;;;;;;5039888;28;20423;-83
2022/07/30 10:26:57;;;;;;;6.93;4.38;;;;;;;;;;5034638;28;20426;-83
2022/07/30 10:29:23;;;;;;;5.00;4.20;;;;;;;;;;5043794;28;20419;-82
2022/07/30 10:31:50;;;;;;;6.88;4.32;;;;;;;;;;5038452;28;20504;-84
2022/07/30 10:34:18;;;;;;;5.13;4.70;;;;;;;;;;5025204;28;20413;-83
2022/07/30 10:36:48;;;;;;;6.68;5.13;;;;;;;;;;5036740;28;20428;-83
2022/07/30 10:39:19;;;;;;;6.60;4.88;;;;;;;;;;5041478;28;20429;-83
2022/07/30 10:41:49;;;;;;;6.43;4.78;;;;;;;;;;5038235;28;20427;-83
2022/07/30 10:44:30;;;;;;;7.60;4.10;;;;;;;;;;5041696;28;20433;-83
2022/07/30 10:47:01;;;;;;;7.93;4.50;;;;;;;;;;5040320;28;20939;-83
2022/07/30 10:49:28;;;;;;;7.20;4.05;;;;;;;;;;5039935;28;20995;-82
2022/07/30 10:51:56;;;;;;;4.22;3.67;;;;;;;;;;5036473;28;20419;-84
2022/07/30 10:54:43;;;;;;;6.20;4.00;;;;;;;;;;5041537;28;20435;-83
2022/07/30 10:57:11;;;;;;;4.10;3.70;;;;;;;;;;5035854;28;20618;-83
2022/07/30 10:59:57;;;;;;;5.35;3.97;;;;;;;;;;5008016;28;20452;-85
2022/07/30 11:02:24;;;;;;;6.57;4.50;;;;;;;;;;5036564;28;20436;-82
2022/07/30 11:05:11;;;;;;;7.10;4.10;;;;;;;;;;5041894;28;20433;-83
2022/07/30 11:07:38;;;;;;;5.50;4.07;;;;;;;;;;5037774;28;20433;-84
2022/07/30 11:10:05;;;;;;;7.97;4.30;;;;;;;;;;5039091;28;20410;-83
2022/07/30 11:12:50;;;;;;;5.53;3.92;;;;;;;;;;5037438;28;20431;-82
2022/07/30 11:15:16;;;;;;;7.27;4.30;;;;;;;;;;5036868;28;20436;-80
2022/07/30 11:17:59;;;;;;;6.05;4.22;;;;;;;;;;5041610;28;20522;-82
2022/07/30 11:20:26;;;;;;;7.40;4.68;;;;;;;;;;5039094;28;20411;-80
2022/07/30 11:22:53;;;;;;;5.35;4.10;;;;;;;;;;5042746;28;20459;-82
2022/07/30 11:25:41;;;;;;;5.57;4.30;;;;;;;;;;5037912;28;20425;-83
2022/07/30 11:28:08;;;;;;;6.30;4.32;;;;;;;;;;5040562;28;20433;-80
2022/07/30 11:30:37;;;;;;;6.75;4.10;;;;;;;;;;5037408;28;20803;-80
2022/07/30 11:33:21;;;;;;;5.93;4.18;;;;;;;;;;5040885;28;20415;-81
2022/07/30 11:36:04;;;;;;;6.53;4.03;;;;;;;;;;5038229;28;20835;-81
2022/07/30 11:38:46;;;;;;;5.47;3.60;;;;;;;;;;5039261;28;20435;-82
2022/07/30 11:41:13;;;;;;;5.10;4.10;;;;;;;;;;5036248;28;20426;-82
2022/07/30 11:43:40;;;;;;;4.93;4.40;;;;;;;;;;5044046;28;20440;-81
2022/07/30 11:46:07;;;;;;;6.13;4.40;;;;;;;;;;5035960;28;20481;-81
2022/07/30 11:48:34;;;;;;;4.45;4.00;;;;;;;;;;5040664;28;20439;-81
2022/07/30 11:51:01;;;;;;;6.43;4.00;;;;;;;;;;5018632;28;20940;-81
2022/07/30 11:53:27;;;;;;;6.00;4.10;;;;;;;;;;5042681;28;20413;-82
2022/07/30 11:55:55;;;;;;;5.75;4.32;;;;;;;;;;5039615;28;20418;-84
2022/07/30 11:58:28;;;;;;;8.25;4.28;;;;;;;;;;5020468;28;20421;-81
2022/07/30 12:00:56;;;;;;;4.55;3.70;;;;;;;;;;5039685;28;20847;-82
2022/07/30 12:03:23;;;;;;;6.35;4.47;;;;;;;;;;5042596;28;20432;-80
2022/07/30 12:05:50;;;;;;;5.82;3.90;;;;;;;;;;5038708;28;20999;-82
2022/07/30 12:08:16;;;;;;;6.68;4.07;;;;;;;;;;5038810;28;20806;-83
2022/07/30 12:10:44;;;;;;;6.25;4.18;;;;;;;;;;5037898;28;20951;-82
2022/07/30 12:13:11;;;;;;;5.85;4.15;;;;;;;;;;5040760;28;20440;-82
2022/07/30 12:15:40;;;;;;;8.40;4.40;;;;;;;;;;5032728;28;20433;-82
2022/07/30 12:18:07;;;;;;;5.65;4.40;;;;;;;;;;5008953;28;20488;-80
2022/07/30 12:20:34;;;;;;;4.40;4.00;;;;;;;;;;5040725;28;20936;-82
2022/07/30 12:23:01;;;;;;;6.65;4.22;;;;;;;;;;5041998;28;20848;-80
2022/07/30 12:25:27;;;;;;;5.28;4.00;;;;;;;;;;5039354;28;20419;-82
2022/07/30 12:27:54;;;;;;;4.20;3.80;;;;;;;;;;5038611;28;20988;-81
2022/07/30 12:30:23;;;;;;;5.10;4.20;;;;;;;;;;5035479;28;20431;-82
2022/07/30 12:32:51;;;;;;;5.67;3.80;;;;;;;;;;5043290;28;20421;-82
2022/07/30 12:35:17;;;;;;;5.78;4.30;;;;;;;;;;5037838;28;20419;-81
2022/07/30 12:38:01;;;;;;;4.47;4.07;;;;;;;;;;5037355;28;20455;-81
2022/07/30 12:40:28;;;;;;;7.88;3.90;;;;;;;;;;5036249;28;21003;-82
2022/07/30 12:42:54;;;;;;;5.85;4.32;;;;;;;;;;5041626;28;20427;-82
2022/07/30 12:45:28;;;;;;;6.20;3.80;;;;;;;;;;5035450;28;20416;-82
2022/07/30 12:47:56;;;;;;;6.65;4.22;;;;;;;;;;5041434;28;20449;-82
2022/07/30 12:50:23;;;;;;;5.35;4.00;;;;;;;;;;5040928;28;20411;-82
2022/07/30 12:52:51;;;;;;;5.13;4.03;;;;;;;;;;5022498;28;20434;-82
2022/07/30 12:55:18;;;;;;;4.25;3.80;;;;;;;;;;5039467;28;20516;-80
2022/07/30 12:57:51;;;;;;;4.75;3.90;;;;;;;;;;5038859;28;20488;-82
2022/07/30 13:00:18;;;;;;;6.10;4.30;;;;;;;;;;5039594;28;20422;-81
2022/07/30 13:02:44;;;;;;;4.70;4.20;;;;;;;;;;5040112;28;20438;-81
2022/07/30 13:05:12;;;;;;;5.97;4.20;;;;;;;;;;5040183;28;20427;-82
2022/07/30 13:07:52;;;;;;;6.15;4.20;;;;;;;;;;5041654;28;21007;-81
2022/07/30 13:10:18;;;;;;;5.70;4.43;;;;;;;;;;5034611;28;20986;-82
2022/07/30 13:12:45;;;;;;;5.40;4.20;;;;;;;;;;5039969;28;20452;-81
2022/07/30 13:15:16;;;;;;;6.38;4.28;;;;;;;;;;5032711;28;20439;-82
2022/07/30 13:17:43;;;;;;;6.10;4.22;;;;;;;;;;5040144;28;20919;-85
2022/07/30 13:20:10;;;;;;;7.57;4.20;;;;;;;;;;5039406;28;20405;-82
2022/07/30 13:22:38;;;;;;;5.30;3.67;;;;;;;;;;5037178;28;20445;-80
2022/07/30 13:25:05;;;;;;;6.40;4.20;;;;;;;;;;5041601;28;20422;-81
2022/07/30 13:27:31;;;;;;;5.07;3.90;;;;;;;;;;5035661;28;20924;-81
2022/07/30 13:29:57;;;;;;;4.30;3.90;;;;;;;;;;5042167;28;20422;-81
2022/07/30 13:32:24;;;;;;;7.65;4.53;;;;;;;;;;5007271;28;20423;-82
2022/07/30 13:34:50;;;;;;;4.55;4.05;;;;;;;;;;5036669;28;20430;-82
2022/07/30 13:37:16;;;;;;;6.60;4.60;;;;;;;;;;5032778;28;20425;-82
2022/07/30 13:39:44;;;;;;;4.55;3.88;;;;;;;;;;5039434;28;20425;-82
2022/07/30 13:42:11;;;;;;;5.28;4.18;;;;;;;;;;5020967;28;20440;-82
2022/07/30 13:44:37;;;;;;;5.10;3.90;;;;;;;;;;5037405;28;20461;-83
2022/07/30 13:47:06;;;;;;;7.80;5.00;;;;;;;;;;5041002;28;20413;-83
2022/07/30 13:49:34;;;;;;;5.30;3.97;;;;;;;;;;5039001;28;20507;-81
2022/07/30 13:52:00;;;;;;;6.77;4.40;;;;;;;;;;5021301;28;20899;-81
2022/07/30 13:54:28;;;;;;;4.40;4.00;;;;;;;;;;5038358;28;20421;-81
2022/07/30 13:56:56;;;;;;;5.28;4.00;;;;;;;;;;5006612;28;20799;-79
2022/07/30 13:59:22;;;;;;;6.28;4.65;;;;;;;;;;5035720;28;20446;-82
2022/07/30 14:01:48;;;;;;;4.88;4.13;;;;;;;;;;5036195;28;20431;-82
2022/07/30 14:04:15;;;;;;;6.38;4.20;;;;;;;;;;5040458;28;20427;-81
2022/07/30 14:06:41;;;;;;;8.07;4.50;;;;;;;;;;5038788;28;20430;-82
2022/07/30 14:09:07;;;;;;;7.07;4.40;;;;;;;;;;5035017;28;20439;-81
2022/07/30 14:11:34;;;;;;;4.50;3.95;;;;;;;;;;5014229;28;20448;-81
2022/07/30 14:14:02;;;;;;;5.87;4.20;;;;;;;;;;5017410;28;20491;-81
2022/07/30 14:16:28;;;;;;;4.88;3.85;;;;;;;;;;5039843;28;20429;-80
2022/07/30 14:18:56;;;;;;;5.93;3.85;;;;;;;;;;5039324;28;20561;-82
2022/07/30 14:21:22;;;;;;;4.60;3.63;;;;;;;;;;5039442;28;20466;-82
2022/07/30 14:23:49;;;;;;;10.23;4.50;;;;;;;;;;5040076;28;20436;-81
2022/07/30 14:26:16;;;;;;;7.13;4.20;;;;;;;;;;5045683;28;20461;-81
2022/07/30 14:28:42;;;;;;;5.78;4.25;;;;;;;;;;5041557;28;20844;-83
2022/07/30 14:31:10;;;;;;;5.40;4.10;;;;;;;;;;5042624;28;20417;-82
2022/07/30 14:33:36;;;;;;;5.80;4.20;;;;;;;;;;5043358;28;20820;-82
2022/07/30 14:36:04;;;;;;;8.60;4.40;;;;;;;;;;5040830;28;20437;-86
2022/07/30 14:38:30;;;;;;;5.95;4.20;;;;;;;;;;5042691;28;20431;-81
2022/07/30 14:40:57;;;;;;;6.80;4.35;;;;;;;;;;5010677;28;20437;-81